Main page
METAR-TAF:

METAR-TAF

Airports :

Murcia, Spain

Murcia–San Javier Airport

latitude: 37-47N, longitude: 000-48W, elevation: 5 m

Current weather observation

The report was made 31 minutes ago, at 07:00 UTC
Wind 3 kt from the West/Northwest
Temperature 6°C
Humidity 93%
Pressure 1017 hPa
Visibility 10 km or more
no clouds below 1500 m and no cumulonimbus

METAR: LELC 220700Z 29003KT CAVOK 06/05 Q1017 NOSIG

Time: 08:31 (07:31 UTC)

Forecast

The report was made 2 hours and 31 minutes ago, at 05:00 UTC
Forecast valid from 22 at 06 UTC to 23 at 06 UTC
Wind 5 kt from the West
Visibility 10 km or more
no clouds below 1500 m and no cumulonimbus
Temporary
from 22 at 12 UTC to 22 at 16 UTC
Wind 10 kt from the Southeast

TAF: LELC 220500Z 2206/2306 26005KT CAVOK TX20/2213Z TN06/2206Z TEMPO 2212/2216 13010KT

Weather observations and forecasts of more than 4000 airports (METAR and TAF reports).

The available stations are represented by yellow and red dots on the map.

Hover mouse over dot to see the name of the station.

Then click to see weather observations and forecasts.

To change the map : click on the green buttons with a black cross to zoom in, on the green button with a dash to zoom out, or on the green arrows for adjacent maps.


METAR-TAF: